Time;durP1;ratioP1;P1;durP2;ratioP2;P2;SDS_P1;SDS_P2;PMS_P1;PMS_P2;Temp;Humidity;BMP_temperature;BMP_pressure;BME280_temperature;BME280_humidity;BME280_pressure;Samples;Min_cycle;Max_cycle;Signal;HPM_P1;HPM_P2
2021/09/08 00:00:05;;;;;;;65.68;52.55;;;25.60;99.20;;;;;;5078691;28;20029;-87
2021/09/08 00:02:30;;;;;;;64.47;53.70;;;25.50;99.20;;;;;;5097802;28;20043;-87
2021/09/08 00:04:56;;;;;;;66.15;53.35;;;25.50;99.30;;;;;;5095678;28;20470;-87
2021/09/08 00:07:22;;;;;;;67.10;54.28;;;25.60;99.30;;;;;;5079092;28;20528;-86
2021/09/08 00:09:47;;;;;;;67.28;53.30;;;25.50;99.30;;;;;;5078816;28;20478;-87
2021/09/08 00:12:13;;;;;;;66.55;54.53;;;25.50;99.30;;;;;;5061728;28;20036;-87
2021/09/08 00:14:40;;;;;;;65.72;53.28;;;25.60;99.40;;;;;;5078203;28;20071;-87
2021/09/08 00:17:06;;;;;;;67.57;53.97;;;25.50;99.30;;;;;;5078125;28;20589;-87
2021/09/08 00:19:31;;;;;;;63.28;51.92;;;25.60;99.40;;;;;;5096922;28;20063;-87
2021/09/08 00:21:58;;;;;;;65.45;53.28;;;25.50;99.30;;;;;;5096436;28;20035;-88
2021/09/08 00:24:24;;;;;;;64.15;52.90;;;25.50;99.30;;;;;;5096831;28;20032;-87
2021/09/08 00:26:50;;;;;;;64.57;53.10;;;25.60;99.40;;;;;;5095426;28;20093;-88
2021/09/08 00:29:15;;;;;;;65.90;52.63;;;25.60;99.40;;;;;;5095037;28;20077;-87
2021/09/08 00:31:41;;;;;;;64.35;51.33;;;25.60;99.40;;;;;;5095270;28;20480;-88
2021/09/08 00:34:06;;;;;;;68.47;54.53;;;25.50;99.40;;;;;;5094862;28;20528;-88
2021/09/08 00:36:32;;;;;;;65.55;53.55;;;25.50;99.40;;;;;;5061698;28;20474;-88
2021/09/08 00:38:58;;;;;;;65.60;54.00;;;25.60;99.40;;;;;;5078082;28;20024;-89
2021/09/08 00:41:24;;;;;;;65.75;52.78;;;25.50;99.30;;;;;;5095175;28;20028;-87
2021/09/08 00:43:49;;;;;;;64.75;53.22;;;25.50;99.30;;;;;;5094715;28;20024;-87
2021/09/08 00:46:15;;;;;;;65.68;52.78;;;25.50;99.30;;;;;;5095873;28;20040;-87
2021/09/08 00:48:41;;;;;;;69.68;55.50;;;25.50;99.30;;;;;;5096843;28;20032;-87
2021/09/08 00:51:06;;;;;;;67.55;54.90;;;25.50;99.30;;;;;;5094820;28;20031;-88
2021/09/08 00:53:34;;;;;;;64.88;53.17;;;25.50;99.30;;;;;;5078284;28;20366;-88
2021/09/08 00:56:02;;;;;;;63.88;51.85;;;25.50;99.30;;;;;;5077845;28;20135;-88
2021/09/08 00:58:28;;;;;;;66.70;54.05;;;25.50;99.30;;;;;;5095846;28;20024;-88
2021/09/08 01:00:54;;;;;;;65.95;54.33;;;25.50;99.30;;;;;;5095685;28;20081;-87
2021/09/08 01:03:19;;;;;;;67.32;54.05;;;25.50;99.30;;;;;;5095742;28;20480;-88
2021/09/08 01:05:46;;;;;;;68.00;54.42;;;25.50;99.30;;;;;;5094817;28;20047;-87
2021/09/08 01:08:13;;;;;;;67.93;55.55;;;25.50;99.30;;;;;;5093918;28;20483;-86
2021/09/08 01:10:39;;;;;;;66.10;53.70;;;25.50;99.30;;;;;;5095441;28;20043;-86
2021/09/08 01:13:06;;;;;;;68.43;54.25;;;25.50;99.30;;;;;;5077536;28;20126;-87
2021/09/08 01:15:31;;;;;;;69.40;54.03;;;25.50;99.50;;;;;;5094101;28;20113;-87
2021/09/08 01:17:57;;;;;;;65.90;54.25;;;25.50;99.20;;;;;;5094043;28;20032;-87
2021/09/08 01:20:23;;;;;;;67.15;53.90;;;25.50;99.20;;;;;;5093931;28;20028;-87
2021/09/08 01:22:51;;;;;;;68.22;54.83;;;25.50;99.20;;;;;;5095516;28;20035;-87
2021/09/08 01:25:22;;;;;;;69.28;56.63;;;25.50;99.20;;;;;;5095312;28;20024;-86
2021/09/08 01:27:49;;;;;;;69.72;55.30;;;25.50;99.30;;;;;;5095210;28;20024;-87
2021/09/08 01:30:20;;;;;;;65.70;56.13;;;25.50;99.20;;;;;;5094052;28;20085;-84
2021/09/08 01:32:49;;;;;;;66.43;54.40;;;25.50;99.30;;;;;;5095489;28;20028;-85
2021/09/08 01:35:20;;;;;;;69.15;55.80;;;25.50;99.20;;;;;;5077373;28;20032;-85
2021/09/08 01:37:47;;;;;;;66.80;54.15;;;25.50;99.20;;;;;;5094283;28;20043;-86
2021/09/08 01:40:13;;;;;;;68.70;55.83;;;25.50;99.20;;;;;;5076970;28;20552;-86
2021/09/08 01:42:39;;;;;;;72.40;58.08;;;25.50;99.20;;;;;;5094963;28;20055;-86
2021/09/08 01:45:05;;;;;;;71.20;56.88;;;25.50;99.20;;;;;;5095144;28;20059;-87
2021/09/08 01:47:31;;;;;;;68.70;56.92;;;25.50;99.20;;;;;;5093979;28;20035;-87
2021/09/08 01:49:57;;;;;;;71.70;56.17;;;25.50;99.20;;;;;;5093658;28;20024;-87
2021/09/08 01:52:23;;;;;;;72.43;57.17;;;25.50;99.20;;;;;;5093377;28;20271;-87
2021/09/08 01:54:48;;;;;;;67.22;55.53;;;25.50;99.30;;;;;;5094934;28;20051;-88
2021/09/08 01:57:14;;;;;;;67.65;55.92;;;25.50;99.30;;;;;;5076700;28;20115;-87
2021/09/08 01:59:39;;;;;;;68.93;55.85;;;25.50;99.30;;;;;;5060602;28;20359;-86
2021/09/08 02:02:05;;;;;;;67.75;55.80;;;25.50;99.30;;;;;;5093688;28;20495;-86
2021/09/08 02:04:31;;;;;;;70.55;56.60;;;25.50;99.30;;;;;;5093876;28;20055;-86
2021/09/08 02:06:56;;;;;;;70.40;57.83;;;25.50;99.30;;;;;;5076786;28;20051;-86
2021/09/08 02:09:22;;;;;;;70.13;56.25;;;25.50;99.30;;;;;;5094750;28;20489;-87
2021/09/08 02:11:48;;;;;;;71.32;58.03;;;25.50;99.30;;;;;;5094628;28;20103;-86
2021/09/08 02:14:14;;;;;;;75.05;59.08;;;25.50;99.30;;;;;;5094805;28;20032;-87
2021/09/08 02:16:40;;;;;;;71.03;57.40;;;25.50;99.30;;;;;;5094183;28;20048;-88
2021/09/08 02:19:05;;;;;;;70.47;57.22;;;25.50;99.30;;;;;;5094245;28;20020;-87
2021/09/08 02:21:31;;;;;;;71.82;58.35;;;25.50;99.30;;;;;;5092299;28;20119;-87
2021/09/08 02:23:57;;;;;;;72.90;59.95;;;25.50;99.30;;;;;;5094572;28;20032;-87
2021/09/08 02:26:22;;;;;;;74.32;59.90;;;25.50;99.20;;;;;;5092623;28;20041;-87
2021/09/08 02:28:49;;;;;;;75.20;60.80;;;25.50;99.20;;;;;;5092847;28;20028;-87
2021/09/08 02:31:14;;;;;;;72.22;59.60;;;25.50;99.20;;;;;;5093978;28;20044;-87
2021/09/08 02:33:41;;;;;;;73.22;60.13;;;25.50;99.20;;;;;;5076055;28;20051;-87
2021/09/08 02:36:07;;;;;;;71.70;59.60;;;25.50;99.20;;;;;;5092763;28;20056;-87
2021/09/08 02:38:33;;;;;;;70.82;57.90;;;25.50;99.20;;;;;;5093766;28;20059;-86
2021/09/08 02:41:00;;;;;;;74.35;60.10;;;25.50;99.10;;;;;;5092693;28;20026;-87
2021/09/08 02:43:26;;;;;;;74.07;60.03;;;25.50;99.10;;;;;;5093467;28;20063;-87
2021/09/08 02:45:52;;;;;;;72.72;58.75;;;25.50;99.10;;;;;;5092860;28;20371;-87
2021/09/08 02:48:18;;;;;;;71.47;58.65;;;25.50;99.10;;;;;;5075030;28;20027;-87
2021/09/08 02:50:43;;;;;;;71.80;58.08;;;25.50;99.10;;;;;;5093296;28;20028;-88
2021/09/08 02:53:09;;;;;;;73.13;57.75;;;25.50;99.10;;;;;;5092429;28;20032;-87
2021/09/08 02:55:35;;;;;;;68.18;56.22;;;25.50;99.10;;;;;;5075297;28;20032;-87
2021/09/08 02:58:01;;;;;;;65.63;55.70;;;25.50;99.10;;;;;;5092376;28;20084;-87
2021/09/08 03:00:27;;;;;;;74.53;58.38;;;25.50;99.10;;;;;;5092178;28;20047;-87
2021/09/08 03:02:52;;;;;;;68.28;55.20;;;25.50;99.10;;;;;;5092562;28;20024;-87
2021/09/08 03:05:18;;;;;;;67.88;55.53;;;25.50;99.10;;;;;;5093397;28;20028;-88
2021/09/08 03:07:43;;;;;;;67.32;54.55;;;25.50;99.10;;;;;;5092843;28;20477;-87
2021/09/08 03:10:10;;;;;;;67.00;54.80;;;25.50;99.10;;;;;;5093192;28;20478;-87
2021/09/08 03:12:35;;;;;;;65.22;54.42;;;25.50;99.30;;;;;;5075210;28;20032;-87
2021/09/08 03:15:01;;;;;;;67.18;53.92;;;25.50;99.10;;;;;;5075502;28;20039;-87
2021/09/08 03:17:27;;;;;;;65.60;53.90;;;25.50;99.10;;;;;;5091820;28;20051;-87
2021/09/08 03:19:52;;;;;;;61.58;51.20;;;25.50;99.10;;;;;;5093561;28;20032;-86
2021/09/08 03:22:18;;;;;;;61.97;52.85;;;25.50;99.10;;;;;;5093409;28;20063;-87
2021/09/08 03:24:44;;;;;;;62.85;52.97;;;25.40;99.00;;;;;;5092349;28;20028;-88
2021/09/08 03:27:09;;;;;;;65.18;52.47;;;25.40;99.00;;;;;;5092125;28;20035;-88
2021/09/08 03:29:35;;;;;;;61.65;50.42;;;25.50;99.10;;;;;;5075032;28;20028;-87
2021/09/08 03:32:00;;;;;;;61.67;49.38;;;25.40;99.00;;;;;;5094099;28;20102;-87
2021/09/08 03:34:26;;;;;;;60.13;49.78;;;25.50;99.10;;;;;;5095990;28;20035;-87
2021/09/08 03:36:51;;;;;;;61.17;48.33;;;25.50;99.10;;;;;;5096155;28;20037;-88
2021/09/08 03:39:17;;;;;;;59.13;49.33;;;25.50;99.10;;;;;;5096212;28;20125;-88
2021/09/08 03:41:43;;;;;;;57.92;48.28;;;25.50;99.10;;;;;;5096425;28;20032;-87
2021/09/08 03:44:08;;;;;;;60.45;49.20;;;25.50;99.10;;;;;;5097249;28;20036;-87
2021/09/08 03:46:34;;;;;;;55.83;46.78;;;25.50;99.10;;;;;;5095932;28;20039;-88
2021/09/08 03:49:00;;;;;;;56.83;46.38;;;25.40;99.10;;;;;;5096151;28;20039;-87
2021/09/08 03:51:25;;;;;;;54.60;47.20;;;25.50;99.10;;;;;;5095604;28;20492;-88
2021/09/08 03:53:51;;;;;;;56.92;46.50;;;25.50;99.10;;;;;;5097126;28;20051;-87
2021/09/08 03:56:20;;;;;;;58.65;46.28;;;25.50;99.10;;;;;;5079004;28;20047;-87
2021/09/08 03:58:45;;;;;;;56.78;46.45;;;25.40;99.00;;;;;;5095904;28;20024;-88
2021/09/08 04:01:11;;;;;;;55.88;45.80;;;25.50;99.00;;;;;;5078762;28;20427;-88
2021/09/08 04:03:36;;;;;;;54.67;45.97;;;25.50;99.00;;;;;;5078759;28;20032;-87
2021/09/08 04:06:02;;;;;;;53.47;44.42;;;25.40;98.90;;;;;;5095935;28;20048;-87
2021/09/08 04:08:28;;;;;;;54.38;44.22;;;25.40;98.90;;;;;;5096924;28;20078;-86
2021/09/08 04:10:53;;;;;;;48.78;42.13;;;25.40;98.90;;;;;;5096884;28;20039;-87
2021/09/08 04:13:19;;;;;;;52.33;43.65;;;25.50;99.00;;;;;;5062113;28;20031;-88
2021/09/08 04:15:44;;;;;;;48.13;41.05;;;25.40;98.90;;;;;;5095433;28;20519;-87
2021/09/08 04:18:10;;;;;;;51.35;41.83;;;25.50;99.00;;;;;;5078723;28;20027;-86
2021/09/08 04:20:36;;;;;;;49.78;41.70;;;25.50;99.00;;;;;;5095273;28;20040;-86
2021/09/08 04:23:01;;;;;;;52.05;41.97;;;25.40;98.90;;;;;;5095519;28;20028;-86
2021/09/08 04:25:27;;;;;;;51.45;41.90;;;25.50;99.00;;;;;;5095270;28;20111;-86
2021/09/08 04:27:52;;;;;;;47.83;41.15;;;25.40;99.00;;;;;;5095509;28;20366;-86
2021/09/08 04:30:18;;;;;;;50.35;40.92;;;25.40;99.00;;;;;;5096453;28;20497;-87
2021/09/08 04:32:44;;;;;;;47.08;39.40;;;25.40;99.00;;;;;;5095247;28;20112;-86
2021/09/08 04:35:09;;;;;;;50.00;40.63;;;25.40;99.00;;;;;;5094747;28;20404;-88
2021/09/08 04:37:36;;;;;;;44.80;38.17;;;25.40;99.00;;;;;;5096440;28;20039;-88
2021/09/08 04:40:03;;;;;;;47.47;39.45;;;25.50;99.10;;;;;;5095068;28;20487;-88
2021/09/08 04:42:29;;;;;;;48.80;40.22;;;25.40;99.00;;;;;;5077758;28;20484;-88
2021/09/08 04:44:55;;;;;;;48.08;39.70;;;25.40;99.00;;;;;;5094447;28;20028;-88
2021/09/08 04:47:20;;;;;;;46.63;38.88;;;25.40;99.00;;;;;;5077960;28;20121;-88
2021/09/08 04:49:46;;;;;;;46.40;38.08;;;25.40;99.00;;;;;;5095890;28;20047;-87
2021/09/08 04:52:12;;;;;;;42.00;36.65;;;25.40;99.00;;;;;;5094624;28;20123;-87
2021/09/08 04:54:37;;;;;;;43.35;36.05;;;25.40;99.00;;;;;;5095716;28;20488;-87
2021/09/08 04:57:03;;;;;;;44.25;36.10;;;25.40;99.00;;;;;;5095405;28;20048;-87
2021/09/08 04:59:29;;;;;;;43.80;36.42;;;25.50;99.00;;;;;;5094514;28;20059;-88
2021/09/08 05:01:55;;;;;;;43.47;36.17;;;25.40;99.00;;;;;;5095491;28;20058;-87
2021/09/08 05:04:20;;;;;;;40.70;34.08;;;25.40;99.00;;;;;;5095499;28;20531;-85
2021/09/08 05:06:50;;;;;;;40.90;34.85;;;25.40;99.00;;;;;;5094675;28;20457;-88
2021/09/08 05:09:19;;;;;;;40.10;34.33;;;25.40;99.00;;;;;;5095134;28;20079;-88
2021/09/08 05:11:44;;;;;;;40.15;33.47;;;25.40;99.00;;;;;;5094373;28;20103;-88
2021/09/08 05:14:10;;;;;;;38.15;32.58;;;25.40;98.90;;;;;;5095777;28;20500;-87
2021/09/08 05:16:36;;;;;;;39.60;33.95;;;25.40;98.90;;;;;;5095005;28;20428;-86
2021/09/08 05:19:01;;;;;;;41.83;34.65;;;25.40;98.90;;;;;;5095370;28;20028;-87
2021/09/08 05:21:30;;;;;;;41.80;34.20;;;25.40;98.90;;;;;;5077442;28;20488;-88
2021/09/08 05:23:55;;;;;;;37.85;33.28;;;25.40;98.80;;;;;;5077514;28;20493;-86
2021/09/08 05:26:21;;;;;;;43.40;35.53;;;25.40;98.70;;;;;;5095186;28;20024;-87
2021/09/08 05:28:49;;;;;;;41.25;34.17;;;25.40;98.70;;;;;;5093476;28;20036;-86
2021/09/08 05:31:14;;;;;;;40.72;33.65;;;25.40;98.70;;;;;;5095139;28;20108;-86
2021/09/08 05:33:40;;;;;;;38.40;32.05;;;25.40;98.80;;;;;;5093960;28;20110;-86
2021/09/08 05:36:06;;;;;;;35.22;29.63;;;25.40;98.80;;;;;;5093009;28;20393;-87
2021/09/08 05:38:31;;;;;;;32.85;27.85;;;25.40;98.70;;;;;;5094868;28;20039;-88
2021/09/08 05:40:57;;;;;;;30.35;24.77;;;25.40;98.70;;;;;;5076865;28;20032;-87
2021/09/08 05:43:22;;;;;;;28.10;22.58;;;25.40;98.60;;;;;;5094867;28;20063;-87
2021/09/08 05:45:48;;;;;;;26.83;21.55;;;25.40;98.50;;;;;;5095193;28;20035;-88
2021/09/08 05:48:14;;;;;;;26.70;20.55;;;25.40;98.40;;;;;;5094748;28;20028;-86
2021/09/08 05:50:40;;;;;;;21.65;17.35;;;25.40;98.30;;;;;;5075918;28;20024;-87
2021/09/08 05:53:06;;;;;;;24.70;17.58;;;25.40;98.20;;;;;;5095068;28;20028;-86
2021/09/08 05:55:32;;;;;;;23.08;17.23;;;25.40;98.20;;;;;;5059037;28;20350;-86
2021/09/08 05:57:58;;;;;;;18.98;16.08;;;25.30;98.10;;;;;;5093625;28;20098;-86
2021/09/08 06:00:24;;;;;;;21.00;16.13;;;25.40;98.00;;;;;;5094486;28;20063;-87
2021/09/08 06:02:49;;;;;;;18.67;14.68;;;25.30;97.90;;;;;;5076796;28;20109;-87
2021/09/08 06:05:16;;;;;;;21.30;14.73;;;25.30;97.90;;;;;;5093563;28;20473;-86
2021/09/08 06:07:41;;;;;;;17.35;14.07;;;25.30;97.80;;;;;;5076034;28;20032;-87
2021/09/08 06:10:07;;;;;;;17.23;13.88;;;25.30;97.80;;;;;;5077102;28;20039;-86
2021/09/08 06:12:34;;;;;;;16.45;12.88;;;25.30;97.70;;;;;;5093333;28;20032;-87
2021/09/08 06:14:59;;;;;;;17.83;13.85;;;25.30;97.70;;;;;;5092947;28;20035;-87
2021/09/08 06:17:25;;;;;;;17.90;12.52;;;25.30;97.60;;;;;;5075907;28;20048;-86
2021/09/08 06:19:51;;;;;;;14.85;12.10;;;25.30;97.60;;;;;;5092638;28;20038;-87
2021/09/08 06:22:19;;;;;;;16.75;12.57;;;25.30;97.50;;;;;;5076429;28;20478;-87
2021/09/08 06:24:45;;;;;;;14.43;11.40;;;25.30;97.50;;;;;;5076147;28;20043;-86
2021/09/08 06:27:11;;;;;;;15.52;12.23;;;25.30;97.50;;;;;;5093101;28;20036;-87
2021/09/08 06:29:36;;;;;;;13.57;10.63;;;25.30;97.40;;;;;;5076230;28;20039;-87
2021/09/08 06:32:02;;;;;;;14.00;11.13;;;25.30;97.40;;;;;;5092725;28;20028;-87
2021/09/08 06:34:28;;;;;;;14.43;11.18;;;25.30;97.40;;;;;;5075635;28;20500;-87
2021/09/08 06:36:53;;;;;;;11.93;10.20;;;25.30;97.40;;;;;;5092719;28;20052;-87
2021/09/08 06:39:22;;;;;;;16.00;11.48;;;25.30;97.30;;;;;;5092925;28;20039;-87
2021/09/08 06:41:51;;;;;;;13.73;10.82;;;25.30;97.30;;;;;;5092762;28;20028;-86
2021/09/08 06:44:17;;;;;;;14.70;11.57;;;25.30;97.30;;;;;;5094614;28;20028;-85
2021/09/08 06:46:50;;;;;;;13.75;11.20;;;25.30;97.30;;;;;;5076306;28;20032;-85
2021/09/08 06:49:15;;;;;;;13.15;10.98;;;25.30;97.30;;;;;;5093904;28;20058;-86
2021/09/08 06:51:41;;;;;;;13.07;10.40;;;25.30;97.30;;;;;;5093412;28;20028;-88
2021/09/08 06:54:06;;;;;;;15.00;11.10;;;25.30;97.30;;;;;;5092562;28;20035;-87
2021/09/08 06:56:32;;;;;;;14.10;10.93;;;25.30;97.30;;;;;;5093849;28;20036;-86
2021/09/08 06:58:58;;;;;;;15.32;11.20;;;25.30;97.30;;;;;;5093944;28;20032;-85
2021/09/08 07:01:23;;;;;;;13.57;10.85;;;25.30;97.20;;;;;;5093039;28;20028;-84
2021/09/08 07:03:49;;;;;;;14.00;11.30;;;25.30;97.20;;;;;;5092580;28;20085;-84
2021/09/08 07:06:14;;;;;;;13.95;11.48;;;25.30;97.20;;;;;;5093032;28;20040;-85
2021/09/08 07:08:40;;;;;;;15.93;11.50;;;25.30;97.20;;;;;;5092444;28;20028;-87
2021/09/08 07:11:06;;;;;;;14.13;10.88;;;25.30;97.30;;;;;;5092854;28;20142;-87
2021/09/08 07:13:31;;;;;;;14.90;10.52;;;25.30;97.40;;;;;;5075310;28;20032;-85
2021/09/08 07:15:57;;;;;;;15.30;11.10;;;25.40;97.50;;;;;;5091397;28;20064;-86
2021/09/08 07:18:25;;;;;;;13.20;9.63;;;25.30;97.50;;;;;;5090676;28;20513;-86
2021/09/08 07:20:52;;;;;;;12.50;10.38;;;25.30;97.60;;;;;;5092110;28;20040;-86
2021/09/08 07:23:17;;;;;;;12.27;9.88;;;25.40;97.60;;;;;;5092962;28;20081;-86
2021/09/08 07:25:43;;;;;;;11.40;9.32;;;25.40;97.60;;;;;;5075221;28;20440;-86
2021/09/08 07:28:09;;;;;;;11.68;9.32;;;25.40;97.60;;;;;;5093348;28;20440;-85
2021/09/08 07:30:37;;;;;;;13.32;9.57;;;25.40;97.60;;;;;;5091794;28;20024;-86
2021/09/08 07:33:03;;;;;;;10.95;8.80;;;25.30;97.50;;;;;;5075270;28;20059;-86
2021/09/08 07:35:29;;;;;;;13.65;10.75;;;25.30;97.60;;;;;;5091875;28;20060;-86
2021/09/08 07:37:57;;;;;;;11.10;9.45;;;25.30;97.60;;;;;;5091590;28;20430;-87
2021/09/08 07:40:23;;;;;;;11.95;9.30;;;25.30;97.70;;;;;;5092049;28;20024;-87
2021/09/08 07:42:51;;;;;;;11.85;9.07;;;25.30;97.80;;;;;;5075173;28;20039;-87
2021/09/08 07:45:17;;;;;;;12.23;9.35;;;25.30;97.90;;;;;;5093533;28;20024;-85
2021/09/08 07:47:42;;;;;;;12.30;9.23;;;25.20;98.00;;;;;;5091916;28;20028;-86
2021/09/08 07:50:08;;;;;;;12.55;10.02;;;25.20;97.90;;;;;;5093005;28;20031;-86
2021/09/08 07:52:34;;;;;;;12.35;9.52;;;25.20;98.00;;;;;;5093117;28;20035;-86
2021/09/08 07:55:01;;;;;;;11.27;9.48;;;25.20;98.00;;;;;;5090742;28;20028;-86
2021/09/08 07:57:26;;;;;;;17.60;10.18;;;25.20;98.10;;;;;;5075024;28;20039;-87
2021/09/08 07:59:52;;;;;;;12.35;9.77;;;25.10;98.10;;;;;;5091350;28;20099;-86
2021/09/08 08:02:18;;;;;;;12.93;10.65;;;25.20;98.10;;;;;;5074622;28;20118;-85
2021/09/08 08:04:43;;;;;;;13.20;9.45;;;25.20;98.10;;;;;;5091459;28;20028;-86
2021/09/08 08:07:09;;;;;;;13.38;10.43;;;25.20;98.20;;;;;;5074703;28;20040;-86
2021/09/08 08:09:35;;;;;;;15.07;10.77;;;25.20;98.20;;;;;;5090655;28;20077;-86
2021/09/08 08:12:00;;;;;;;13.13;10.68;;;25.20;98.20;;;;;;5090955;28;20032;-87
2021/09/08 08:14:29;;;;;;;13.95;10.35;;;25.20;98.20;;;;;;5091507;28;20032;-86
2021/09/08 08:16:54;;;;;;;12.77;9.82;;;25.20;98.20;;;;;;5090718;28;20406;-87
2021/09/08 08:19:20;;;;;;;13.65;11.20;;;25.20;98.20;;;;;;5093894;28;20036;-86
2021/09/08 08:21:48;;;;;;;14.77;10.90;;;25.30;98.20;;;;;;5095096;28;20124;-86
2021/09/08 08:24:14;;;;;;;11.38;9.68;;;25.20;98.10;;;;;;5096399;28;20035;-86
2021/09/08 08:26:39;;;;;;;13.50;10.45;;;25.30;98.20;;;;;;5096580;28;20028;-86
2021/09/08 08:29:05;;;;;;;13.27;9.98;;;25.30;98.20;;;;;;5077722;28;20031;-87
2021/09/08 08:31:31;;;;;;;13.23;10.02;;;25.30;98.20;;;;;;5095038;28;20076;-86
2021/09/08 08:33:56;;;;;;;13.00;10.18;;;25.30;98.20;;;;;;5094299;28;20040;-87
2021/09/08 08:36:22;;;;;;;13.63;10.38;;;25.30;98.10;;;;;;5094597;28;20105;-87
2021/09/08 08:38:48;;;;;;;14.57;11.07;;;25.30;98.10;;;;;;5078108;28;20113;-86
2021/09/08 08:41:14;;;;;;;13.38;10.98;;;25.30;98.10;;;;;;5095210;28;20032;-87
2021/09/08 08:43:40;;;;;;;11.63;10.23;;;25.30;98.00;;;;;;5094618;28;20439;-86
2021/09/08 08:46:06;;;;;;;12.40;10.20;;;25.30;98.00;;;;;;5093560;28;20417;-86
2021/09/08 08:48:32;;;;;;;13.70;10.73;;;25.40;98.00;;;;;;5093498;28;20497;-87
2021/09/08 08:50:58;;;;;;;12.85;11.45;;;25.40;98.00;;;;;;5095571;28;20024;-85
2021/09/08 08:53:24;;;;;;;11.32;9.35;;;25.40;98.00;;;;;;5094739;28;20028;-87
2021/09/08 08:55:49;;;;;;;13.93;10.15;;;25.40;98.00;;;;;;5094968;28;20111;-87
2021/09/08 08:58:15;;;;;;;14.82;9.35;;;25.50;98.10;;;;;;5078028;28;20056;-87
2021/09/08 09:00:41;;;;;;;13.45;9.57;;;25.40;98.20;;;;;;5095568;28;20454;-86
2021/09/08 09:03:07;;;;;;;15.93;9.65;;;25.50;98.30;;;;;;5095684;28;20024;-86
2021/09/08 09:05:39;;;;;;;15.57;10.35;;;25.50;98.50;;;;;;5077866;28;20104;-86
2021/09/08 09:08:07;;;;;;;15.48;9.85;;;25.50;98.80;;;;;;5094272;28;20028;-87
2021/09/08 09:10:33;;;;;;;17.90;9.80;;;25.50;98.80;;;;;;5094319;28;20039;-86
2021/09/08 09:12:59;;;;;;;16.10;10.52;;;25.50;98.90;;;;;;5078379;28;20028;-85
2021/09/08 09:15:28;;;;;;;17.15;10.05;;;25.60;99.00;;;;;;5094257;28;20028;-85
2021/09/08 09:17:54;;;;;;;14.80;10.23;;;25.50;98.90;;;;;;5095933;28;20040;-85
2021/09/08 09:20:29;;;;;;;16.75;10.38;;;25.60;99.00;;;;;;5094024;28;20024;-86
2021/09/08 09:22:58;;;;;;;16.77;9.93;;;25.60;99.10;;;;;;5094041;28;20455;-87
2021/09/08 09:25:29;;;;;;;20.13;10.93;;;25.60;99.10;;;;;;5095517;28;20101;-86
2021/09/08 09:27:58;;;;;;;20.95;9.90;;;25.60;99.10;;;;;;5094239;28;20409;-87
2021/09/08 09:30:29;;;;;;;17.20;10.15;;;25.60;99.20;;;;;;5094951;28;20051;-87
2021/09/08 09:32:56;;;;;;;18.88;10.48;;;25.60;99.20;;;;;;5094076;28;20466;-88
2021/09/08 09:35:32;;;;;;;20.30;10.63;;;25.60;99.40;;;;;;5094739;28;20032;-87
2021/09/08 09:38:07;;;;;;;18.65;10.55;;;25.60;99.50;;;;;;5094197;28;20089;-86
2021/09/08 09:40:36;;;;;;;;;;;25.60;99.40;;;;;;5095723;28;20024;-85
2021/09/08 09:43:10;;;;;;;20.88;10.50;;;25.70;99.40;;;;;;5095029;28;19948;-86
2021/09/08 09:45:38;;;;;;;23.65;11.00;;;25.70;99.40;;;;;;5095243;28;20024;-87
2021/09/08 09:48:05;;;;;;;20.80;10.32;;;25.70;99.60;;;;;;5091054;28;20090;-88
2021/09/08 09:50:32;;;;;;;15.57;10.73;;;25.70;99.70;;;;;;5093439;28;20534;-87
2021/09/08 09:52:58;;;;;;;17.90;9.65;;;25.60;99.80;;;;;;5094805;28;20028;-87
2021/09/08 09:55:25;;;;;;;20.80;10.07;;;25.70;99.80;;;;;;5094951;28;20397;-87
2021/09/08 09:57:52;;;;;;;14.95;10.52;;;25.60;99.90;;;;;;5094428;28;20032;-88
2021/09/08 10:00:19;;;;;;;13.95;10.05;;;25.60;99.90;;;;;;5096844;28;20500;-89
2021/09/08 10:02:45;;;;;;;17.80;9.63;;;25.60;99.90;;;;;;5095266;28;20482;-87
2021/09/08 10:05:13;;;;;;;15.63;10.40;;;25.60;99.90;;;;;;5076752;28;20103;-87
2021/09/08 10:07:39;;;;;;;14.70;9.13;;;25.60;99.90;;;;;;5093620;28;20031;-87
2021/09/08 10:10:16;;;;;;;12.68;8.80;;;25.60;99.90;;;;;;5093169;28;20028;-88
2021/09/08 10:12:54;;;;;;;17.13;10.15;;;25.50;99.90;;;;;;5094377;28;20020;-87
2021/09/08 10:15:22;;;;;;;13.80;9.13;;;25.50;99.90;;;;;;5092707;28;20039;-88
2021/09/08 10:17:48;;;;;;;15.48;8.80;;;25.60;99.90;;;;;;5094710;28;20048;-86
2021/09/08 10:20:25;;;;;;;16.95;9.50;;;25.60;99.90;;;;;;5094262;28;20056;-87
2021/09/08 10:22:51;;;;;;;14.60;9.20;;;25.60;99.90;;;;;;5093001;28;20024;-87
2021/09/08 10:25:20;;;;;;;12.73;9.27;;;25.60;99.90;;;;;;5094492;28;20115;-88
2021/09/08 10:27:55;;;;;;;18.42;9.55;;;25.60;99.90;;;;;;5094237;28;20035;-88
2021/09/08 10:30:24;;;;;;;15.30;9.45;;;25.60;99.90;;;;;;5093340;28;20462;-87
2021/09/08 10:32:52;;;;;;;13.65;9.32;;;25.60;99.90;;;;;;5092604;28;20028;-87
2021/09/08 10:35:19;;;;;;;13.65;9.90;;;25.60;99.90;;;;;;5093709;28;20115;-87
2021/09/08 10:37:50;;;;;;;15.50;9.18;;;25.60;99.90;;;;;;5092932;28;20035;-87
2021/09/08 10:40:17;;;;;;;15.68;9.60;;;25.60;99.90;;;;;;5091630;28;20032;-87
2021/09/08 10:42:57;;;;;;;12.73;8.85;;;25.70;99.90;;;;;;5093372;28;20024;-87
2021/09/08 10:45:28;;;;;;;13.40;8.65;;;25.70;99.90;;;;;;5092730;28;20054;-88
2021/09/08 10:47:56;;;;;;;11.25;7.97;;;25.70;99.90;;;;;;5092225;28;20032;-87
2021/09/08 10:50:42;;;;;;;13.23;9.40;;;25.70;99.90;;;;;;5076000;28;20050;-86
2021/09/08 10:53:28;;;;;;;13.90;9.18;;;25.70;99.90;;;;;;5092914;28;20028;-88
2021/09/08 10:55:55;;;;;;;11.50;8.50;;;25.70;99.90;;;;;;5094431;28;20043;-87
2021/09/08 10:58:22;;;;;;;10.75;8.52;;;25.70;99.90;;;;;;5093054;28;20465;-88
2021/09/08 11:00:49;;;;;;;10.30;7.70;;;25.70;99.90;;;;;;5075412;28;20032;-87
2021/09/08 11:03:15;;;;;;;11.48;7.95;;;25.70;99.90;;;;;;5092201;28;20031;-86
2021/09/08 11:06:00;;;;;;;10.23;7.57;;;25.70;99.90;;;;;;5093540;28;20111;-87
2021/09/08 11:08:31;;;;;;;14.10;7.75;;;25.70;99.90;;;;;;5095227;28;20034;-86
2021/09/08 11:11:16;;;;;;;11.18;7.55;;;25.70;99.90;;;;;;5094048;28;20365;-87
2021/09/08 11:13:44;;;;;;;12.85;8.07;;;25.80;99.90;;;;;;5092710;28;20051;-87
2021/09/08 11:16:16;;;;;;;12.05;8.13;;;25.80;99.90;;;;;;5092205;28;20059;-87
2021/09/08 11:18:42;;;;;;;8.68;7.38;;;25.70;99.90;;;;;;5093434;28;20027;-86
2021/09/08 11:21:08;;;;;;;11.43;8.48;;;25.80;99.90;;;;;;5058974;28;20028;-88
2021/09/08 11:23:34;;;;;;;11.18;7.75;;;25.70;99.90;;;;;;5092138;28;20036;-86
2021/09/08 11:26:08;;;;;;;10.30;7.40;;;25.80;99.90;;;;;;5075707;28;20035;-87
2021/09/08 11:28:35;;;;;;;;;;;25.80;99.90;;;;;;5092504;28;20035;-87
2021/09/08 11:31:13;;;;;;;10.77;7.68;;;25.80;99.90;;;;;;5091340;28;20388;-87
2021/09/08 11:33:39;;;;;;;10.52;7.60;;;25.80;99.90;;;;;;5092799;28;20055;-87
2021/09/08 11:36:19;;;;;;;11.18;7.72;;;25.80;99.90;;;;;;5092803;28;20025;-87
2021/09/08 11:38:56;;;;;;;9.45;7.32;;;25.80;99.90;;;;;;5094063;28;20037;-86
2021/09/08 11:41:23;;;;;;;11.02;7.05;;;25.80;99.90;;;;;;5094693;28;20027;-87
2021/09/08 11:43:52;;;;;;;11.30;7.65;;;25.80;99.90;;;;;;5093058;28;20040;-87
2021/09/08 11:46:25;;;;;;;14.50;7.70;;;25.80;99.90;;;;;;5093283;28;20032;-86
2021/09/08 11:48:54;;;;;;;15.05;7.63;;;25.80;99.90;;;;;;5093713;28;20031;-84
2021/09/08 11:51:25;;;;;;;13.57;8.30;;;25.80;99.90;;;;;;5091691;28;20032;-84
2021/09/08 11:53:53;;;;;;;14.80;8.30;;;25.80;99.90;;;;;;5095805;28;20024;-87
2021/09/08 11:56:24;;;;;;;13.98;8.40;;;25.80;99.90;;;;;;5095080;28;20039;-86
2021/09/08 11:58:58;;;;;;;16.15;8.75;;;25.80;99.90;;;;;;5096648;28;20501;-87
2021/09/08 12:01:25;;;;;;;16.42;8.65;;;25.80;99.90;;;;;;5096592;28;20032;-87
2021/09/08 12:03:55;;;;;;;15.00;8.43;;;25.80;99.90;;;;;;5094667;28;20465;-88
2021/09/08 12:06:44;;;;;;;15.45;8.45;;;25.80;99.90;;;;;;5096055;28;20063;-87
2021/09/08 12:09:12;;;;;;;15.63;8.35;;;25.80;99.90;;;;;;5090226;28;20058;-87
2021/09/08 12:11:42;;;;;;;11.82;8.02;;;25.80;99.90;;;;;;5079284;28;20085;-87
2021/09/08 12:14:14;;;;;;;15.10;8.40;;;25.80;99.90;;;;;;5097887;28;20078;-86
2021/09/08 12:16:40;;;;;;;15.30;7.80;;;25.90;99.90;;;;;;5096793;28;20050;-87
2021/09/08 12:19:28;;;;;;;18.50;8.02;;;25.80;99.90;;;;;;5095532;28;20480;-87
2021/09/08 12:22:19;;;;;;;11.70;8.27;;;25.80;99.90;;;;;;5097070;28;20106;-85
2021/09/08 12:24:45;;;;;;;13.73;8.68;;;25.80;99.90;;;;;;5096824;28;20034;-85
2021/09/08 12:27:24;;;;;;;11.23;7.97;;;25.80;99.90;;;;;;5095152;28;20028;-84
2021/09/08 12:29:52;;;;;;;15.85;8.43;;;25.80;99.90;;;;;;5095283;28;20024;-86